Time;durP1;ratioP1;P1;durP2;ratioP2;P2;SDS_P1;SDS_P2;PMS_P1;PMS_P2;Temp;Humidity;BMP_temperature;BMP_pressure;BME280_temperature;BME280_humidity;BME280_pressure;Samples;Min_cycle;Max_cycle;Signal;HPM_P1;HPM_P2
2022/01/15 00:02:05;;;;;;;43.60;17.42;;;-2.40;99.90;;;;;;5058629;28;20025;-79
2022/01/15 00:04:31;;;;;;;46.75;17.50;;;-2.40;99.90;;;;;;5040329;28;20029;-79
2022/01/15 00:06:57;;;;;;;43.45;17.75;;;-2.30;99.90;;;;;;5058910;28;20417;-79
2022/01/15 00:09:23;;;;;;;38.17;16.80;;;-2.40;99.90;;;;;;5058919;28;20029;-79
2022/01/15 00:11:48;;;;;;;34.10;14.40;;;-2.30;99.90;;;;;;5058601;28;20579;-79
2022/01/15 00:14:23;;;;;;;37.15;14.48;;;-2.30;99.90;;;;;;5040936;28;20111;-79
2022/01/15 00:16:56;;;;;;;34.15;14.60;;;-2.30;99.90;;;;;;5040892;28;20025;-79
2022/01/15 00:19:33;;;;;;;30.50;13.13;;;-2.30;99.90;;;;;;5040191;28;20017;-79
2022/01/15 00:21:58;;;;;;;27.95;12.38;;;-2.30;99.90;;;;;;5039964;28;20029;-79
2022/01/15 00:24:24;;;;;;;27.00;12.13;;;-2.30;99.90;;;;;;5058235;28;20024;-79
2022/01/15 00:26:50;;;;;;;28.65;13.13;;;-2.30;99.90;;;;;;5058235;28;20036;-79
2022/01/15 00:29:16;;;;;;;27.20;11.95;;;-2.30;99.90;;;;;;5040469;28;20031;-79
2022/01/15 00:31:42;;;;;;;26.33;11.82;;;-2.30;99.90;;;;;;5058001;28;20524;-79
2022/01/15 00:34:07;;;;;;;28.00;12.60;;;-2.30;99.90;;;;;;5058432;28;20017;-80
2022/01/15 00:36:33;;;;;;;26.92;13.15;;;-2.30;99.90;;;;;;5057793;28;20087;-79
2022/01/15 00:38:59;;;;;;;30.13;12.85;;;-2.30;99.90;;;;;;5058413;28;20036;-79
2022/01/15 00:41:26;;;;;;;24.70;11.32;;;-2.30;99.90;;;;;;5057586;28;20036;-79
2022/01/15 00:43:52;;;;;;;25.50;12.15;;;-2.30;99.90;;;;;;5057631;28;20028;-79
2022/01/15 00:46:18;;;;;;;27.13;12.23;;;-2.30;99.90;;;;;;5058020;28;20025;-80
2022/01/15 00:48:44;;;;;;;25.65;11.65;;;-2.30;99.90;;;;;;5058077;28;20095;-79
2022/01/15 00:51:09;;;;;;;27.90;10.90;;;-2.30;99.90;;;;;;5057467;28;20500;-80
2022/01/15 00:53:35;;;;;;;22.73;9.63;;;-2.20;99.90;;;;;;5058302;28;20117;-79
2022/01/15 00:56:01;;;;;;;16.40;8.63;;;-2.20;99.90;;;;;;5057546;28;20021;-79
2022/01/15 00:58:26;;;;;;;17.55;8.27;;;-2.30;99.90;;;;;;5083543;23;20055;-77
2022/01/15 01:00:52;;;;;;;13.98;8.20;;;-2.30;99.90;;;;;;5076934;28;20110;-76
2022/01/15 01:03:18;;;;;;;13.50;6.85;;;-2.20;99.90;;;;;;5094399;28;20047;-77
2022/01/15 01:05:44;;;;;;;13.52;7.05;;;-2.30;99.90;;;;;;5076188;28;20093;-77
2022/01/15 01:08:09;;;;;;;19.60;9.15;;;-2.30;99.90;;;;;;5094215;28;20037;-77
2022/01/15 01:10:54;;;;;;;14.80;7.22;;;-2.30;99.90;;;;;;5094464;28;20023;-77
2022/01/15 01:21:59;;;;;;;14.90;7.40;;;-2.30;99.90;;;;;;5094281;28;20555;-76
2022/01/15 01:24:07;;;;;;;11.70;6.38;;;-2.30;99.90;;;;;;5093834;28;20433;-76
2022/01/15 01:26:47;;;;;;;16.00;7.32;;;-2.40;99.90;;;;;;5075697;28;20118;-76
2022/01/15 01:32:06;;;;;;;13.75;7.35;;;-2.40;99.90;;;;;;5093520;28;20039;-76
2022/01/15 01:34:36;;;;;;;15.93;8.18;;;-2.40;99.90;;;;;;5075626;28;20116;-76
2022/01/15 01:45:04;;;;;;;20.75;9.57;;;-2.30;99.90;;;;;;5093748;28;20379;-76
2022/01/15 01:47:39;;;;;;;19.45;9.98;;;-2.30;99.90;;;;;;5094084;28;20028;-77
2022/01/15 01:50:17;;;;;;;19.77;9.68;;;-2.30;99.90;;;;;;5093967;28;20035;-76
2022/01/15 01:52:50;;;;;;;19.38;10.20;;;-2.30;99.90;;;;;;5075371;28;20157;-76
2022/01/15 01:55:19;;;;;;;24.40;11.15;;;-2.30;99.90;;;;;;5076330;28;20020;-76
2022/01/15 01:57:47;;;;;;;21.05;9.70;;;-2.30;99.90;;;;;;5075357;28;20027;-76
2022/01/15 02:00:15;;;;;;;21.73;10.35;;;-2.30;99.90;;;;;;5075592;28;20031;-76
2022/01/15 02:02:40;;;;;;;19.92;9.70;;;-2.30;99.90;;;;;;5096665;28;20028;-77
2022/01/15 02:05:07;;;;;;;21.95;9.60;;;-2.30;99.90;;;;;;5097650;28;20504;-77
2022/01/15 02:07:33;;;;;;;21.98;9.50;;;-2.30;99.90;;;;;;5079498;28;20028;-76
2022/01/15 02:09:59;;;;;;;21.05;9.65;;;-2.30;99.90;;;;;;5098009;28;20393;-76
2022/01/15 02:12:25;;;;;;;17.08;8.55;;;-2.30;99.90;;;;;;5097523;28;20378;-76
2022/01/15 02:14:51;;;;;;;19.50;8.43;;;-2.30;99.90;;;;;;5079461;28;20111;-76
2022/01/15 02:17:19;;;;;;;16.65;8.73;;;-2.30;99.90;;;;;;5097521;28;20020;-76
2022/01/15 02:25:10;;;;;;;15.68;7.80;;;-2.30;99.90;;;;;;5097964;28;20078;-76
2022/01/15 02:27:35;;;;;;;17.15;9.00;;;-2.40;99.90;;;;;;5097574;28;20028;-76
2022/01/15 02:30:04;;;;;;;16.33;8.52;;;-2.40;99.90;;;;;;5079221;28;20540;-76
2022/01/15 02:32:34;;;;;;;17.70;8.85;;;-2.40;99.90;;;;;;5097458;28;20024;-76
2022/01/15 02:35:01;;;;;;;16.50;8.43;;;-2.40;99.90;;;;;;5079246;28;20115;-75
2022/01/15 02:37:30;;;;;;;14.40;7.40;;;-2.40;99.90;;;;;;5078972;28;20028;-76
2022/01/15 02:39:59;;;;;;;13.00;6.55;;;-2.40;99.90;;;;;;5097031;28;20091;-76
2022/01/15 02:42:28;;;;;;;11.57;6.32;;;-2.50;99.90;;;;;;5097614;28;20511;-76
2022/01/15 02:44:59;;;;;;;12.52;6.88;;;-2.50;99.90;;;;;;5078721;28;20028;-76
2022/01/15 02:50:10;;;;;;;14.38;8.27;;;-2.40;99.90;;;;;;5096952;28;20057;-76
2022/01/15 02:52:36;;;;;;;13.27;6.63;;;-2.50;99.90;;;;;;5096890;28;20051;-76
2022/01/15 02:55:02;;;;;;;11.95;6.25;;;-2.50;99.90;;;;;;5079138;28;20462;-76
2022/01/15 02:57:28;;;;;;;16.48;8.50;;;-2.50;99.90;;;;;;5097034;28;20020;-76
2022/01/15 02:59:53;;;;;;;14.48;7.25;;;-2.50;99.90;;;;;;5096619;28;20146;-76
2022/01/15 03:02:19;;;;;;;14.38;7.30;;;-2.50;99.90;;;;;;5078545;28;20476;-77
2022/01/15 03:04:45;;;;;;;11.32;6.60;;;-2.50;99.90;;;;;;5096835;28;20020;-76
2022/01/15 03:07:10;;;;;;;12.15;6.50;;;-2.50;99.90;;;;;;5096955;28;20026;-77
2022/01/15 03:09:36;;;;;;;9.15;5.68;;;-2.50;99.90;;;;;;5078427;28;20028;-76
2022/01/15 03:12:03;;;;;;;12.43;6.25;;;-2.50;99.90;;;;;;5096581;28;20035;-76
2022/01/15 03:14:31;;;;;;;12.10;6.15;;;-2.50;99.90;;;;;;5095103;28;20016;-76
2022/01/15 03:16:57;;;;;;;13.57;6.47;;;-2.50;99.90;;;;;;5096417;28;20028;-76
2022/01/15 03:19:23;;;;;;;13.30;6.80;;;-2.50;99.90;;;;;;5078556;28;20031;-76
2022/01/15 03:21:49;;;;;;;13.10;6.70;;;-2.50;99.90;;;;;;5078136;28;20390;-76
2022/01/15 03:24:14;;;;;;;12.10;6.00;;;-2.50;99.90;;;;;;5096386;28;20024;-76
2022/01/15 03:26:40;;;;;;;16.73;7.18;;;-2.50;99.90;;;;;;5096248;28;20024;-76
2022/01/15 03:29:06;;;;;;;22.38;8.40;;;-2.50;99.90;;;;;;5096480;28;20016;-76
2022/01/15 03:31:31;;;;;;;37.97;10.93;;;-2.50;99.90;;;;;;5077904;28;20028;-76
2022/01/15 03:33:57;;;;;;;28.80;10.25;;;-2.50;99.90;;;;;;5096040;28;20387;-76
2022/01/15 03:36:23;;;;;;;29.73;10.27;;;-2.60;99.90;;;;;;5096101;28;20153;-76
2022/01/15 03:38:49;;;;;;;29.50;10.00;;;-2.50;99.90;;;;;;5096012;28;20025;-76
2022/01/15 03:41:14;;;;;;;31.55;11.18;;;-2.50;99.90;;;;;;5095930;28;20028;-76
2022/01/15 03:43:40;;;;;;;22.50;9.75;;;-2.50;99.90;;;;;;5077791;28;20032;-76
2022/01/15 03:46:06;;;;;;;21.70;8.60;;;-2.50;99.90;;;;;;5095861;28;20020;-76
2022/01/15 03:48:32;;;;;;;21.63;8.38;;;-2.60;99.90;;;;;;5077844;28;20077;-76
2022/01/15 03:50:59;;;;;;;21.33;8.32;;;-2.60;99.90;;;;;;5095823;28;20024;-76
2022/01/15 03:53:25;;;;;;;17.55;7.97;;;-2.60;99.90;;;;;;5095635;28;20364;-76
2022/01/15 03:55:50;;;;;;;17.73;7.97;;;-2.60;99.90;;;;;;5095809;28;20069;-76
2022/01/15 03:58:17;;;;;;;14.30;6.90;;;-2.60;99.90;;;;;;5077532;28;20032;-76
2022/01/15 04:00:43;;;;;;;13.13;6.90;;;-2.60;99.90;;;;;;5095664;28;20030;-76
2022/01/15 04:03:08;;;;;;;14.40;6.90;;;-2.60;99.90;;;;;;5095772;28;20106;-76
2022/01/15 04:05:35;;;;;;;13.40;7.57;;;-2.60;99.90;;;;;;5095539;28;20049;-76
2022/01/15 04:08:00;;;;;;;19.70;7.60;;;-2.60;99.90;;;;;;5077343;28;20051;-76
2022/01/15 04:10:26;;;;;;;16.33;7.03;;;-2.70;99.90;;;;;;5095596;28;20058;-76
2022/01/15 04:12:52;;;;;;;17.58;7.43;;;-2.70;99.90;;;;;;5095707;28;20069;-76
2022/01/15 04:15:18;;;;;;;14.32;6.88;;;-2.70;99.90;;;;;;5095616;28;20460;-76
2022/01/15 04:17:47;;;;;;;13.75;6.82;;;-2.70;99.90;;;;;;5095664;28;20020;-76
2022/01/15 04:20:16;;;;;;;16.45;7.40;;;-2.70;99.90;;;;;;5095516;28;20016;-76
2022/01/15 04:22:41;;;;;;;15.23;6.38;;;-2.70;99.90;;;;;;5095563;28;20022;-77
2022/01/15 04:25:08;;;;;;;15.88;6.53;;;-2.70;99.90;;;;;;5076618;28;20434;-76
2022/01/15 04:27:34;;;;;;;15.98;6.93;;;-2.70;99.90;;;;;;5095124;28;20043;-76
2022/01/15 04:30:04;;;;;;;12.23;5.75;;;-2.70;99.90;;;;;;5095679;28;20020;-77
2022/01/15 04:32:30;;;;;;;13.52;6.32;;;-2.70;99.90;;;;;;5077084;28;20070;-76
2022/01/15 04:34:57;;;;;;;12.93;6.88;;;-2.70;99.90;;;;;;5095494;28;20027;-76
2022/01/15 04:37:24;;;;;;;15.40;6.20;;;-2.70;99.90;;;;;;5078460;28;20115;-75
2022/01/15 04:39:51;;;;;;;15.50;7.47;;;-2.70;99.90;;;;;;5096902;28;20020;-76
2022/01/15 04:42:21;;;;;;;14.55;7.50;;;-2.70;99.90;;;;;;5097180;28;20051;-76
2022/01/15 04:44:47;;;;;;;16.60;7.05;;;-2.70;99.90;;;;;;5095341;28;20020;-76
2022/01/15 04:47:13;;;;;;;13.13;7.03;;;-2.70;99.90;;;;;;5076667;28;20036;-76
2022/01/15 04:49:39;;;;;;;14.73;7.50;;;-2.70;99.90;;;;;;5095054;28;20027;-76
2022/01/15 04:52:05;;;;;;;14.95;7.38;;;-2.70;99.90;;;;;;5095001;28;20020;-76
2022/01/15 04:54:31;;;;;;;14.75;7.35;;;-2.70;99.90;;;;;;5095463;28;20466;-76
2022/01/15 04:56:57;;;;;;;15.00;7.40;;;-2.70;99.90;;;;;;5076334;28;20044;-76
2022/01/15 04:59:23;;;;;;;16.55;7.43;;;-2.70;99.90;;;;;;5094312;28;20035;-76
2022/01/15 05:01:50;;;;;;;16.98;8.15;;;-2.70;99.90;;;;;;5095349;28;20016;-76
2022/01/15 05:04:16;;;;;;;15.48;7.57;;;-2.70;99.90;;;;;;5094349;28;20035;-76
2022/01/15 05:06:42;;;;;;;16.42;7.28;;;-2.70;99.90;;;;;;5094548;28;20020;-76
2022/01/15 05:09:07;;;;;;;13.13;6.47;;;-2.80;99.90;;;;;;5076244;28;20388;-76
2022/01/15 05:11:49;;;;;;;15.88;7.22;;;-2.80;99.90;;;;;;5094331;28;20120;-76
2022/01/15 05:14:18;;;;;;;17.05;8.05;;;-2.90;99.90;;;;;;5094549;28;20020;-76
2022/01/15 05:16:44;;;;;;;17.73;7.50;;;-2.90;99.90;;;;;;5094318;28;20023;-76
2022/01/15 05:19:10;;;;;;;14.45;7.05;;;-2.90;99.90;;;;;;5094471;28;20022;-76
2022/01/15 05:21:37;;;;;;;13.82;7.05;;;-3.00;99.90;;;;;;5094748;28;20020;-73
2022/01/15 05:24:03;;;;;;;16.77;7.53;;;-3.00;99.90;;;;;;5075866;28;20024;-73
2022/01/15 05:26:29;;;;;;;31.15;13.43;;;-3.10;99.90;;;;;;5093897;28;20421;-74
2022/01/15 05:28:55;;;;;;;119.35;34.25;;;-3.10;99.90;;;;;;5093949;28;20078;-74
2022/01/15 05:31:20;;;;;;;57.33;23.55;;;-3.20;99.90;;;;;;5094465;28;20052;-73
2022/01/15 05:33:46;;;;;;;50.83;21.85;;;-3.30;99.90;;;;;;5094315;28;20020;-74
2022/01/15 05:36:12;;;;;;;47.78;22.15;;;-3.40;99.90;;;;;;5093334;28;20026;-74
2022/01/15 05:38:37;;;;;;;34.33;15.15;;;-3.40;99.90;;;;;;5093810;28;20087;-74
2022/01/15 05:41:03;;;;;;;20.35;10.45;;;-3.50;99.90;;;;;;5075661;28;20499;-73
2022/01/15 05:43:29;;;;;;;19.08;9.98;;;-3.40;99.90;;;;;;5093671;28;20028;-73
2022/01/15 05:45:54;;;;;;;17.95;9.73;;;-3.50;99.90;;;;;;5093657;28;20020;-73
2022/01/15 05:48:20;;;;;;;23.20;12.13;;;-3.50;99.90;;;;;;5075519;28;20052;-73
2022/01/15 05:50:47;;;;;;;16.42;10.52;;;-3.50;99.90;;;;;;5093586;28;20031;-73
2022/01/15 05:53:13;;;;;;;18.50;9.32;;;-3.50;99.90;;;;;;5093505;28;20046;-73
2022/01/15 05:55:38;;;;;;;21.00;9.73;;;-3.50;99.90;;;;;;5093603;28;20028;-73
2022/01/15 05:58:06;;;;;;;20.40;10.43;;;-3.50;99.90;;;;;;5093546;28;20029;-73
2022/01/15 06:00:32;;;;;;;22.85;10.98;;;-3.40;99.90;;;;;;5093455;28;20474;-73
2022/01/15 06:02:58;;;;;;;21.45;10.90;;;-3.40;99.90;;;;;;5075368;28;20024;-73
2022/01/15 06:05:24;;;;;;;17.90;8.70;;;-3.30;99.90;;;;;;5093389;28;20024;-73
2022/01/15 06:07:50;;;;;;;15.57;7.82;;;-3.30;99.90;;;;;;5093793;28;20040;-73
2022/01/15 06:10:15;;;;;;;16.38;8.05;;;-3.20;99.90;;;;;;5093887;28;20060;-73
2022/01/15 06:12:43;;;;;;;17.10;8.50;;;-3.20;99.90;;;;;;5093688;28;20058;-73
2022/01/15 06:15:10;;;;;;;21.75;8.85;;;-3.20;99.90;;;;;;5093749;28;20382;-73
2022/01/15 06:17:36;;;;;;;22.02;10.88;;;-3.20;99.90;;;;;;5093748;28;20471;-73
2022/01/15 06:20:02;;;;;;;22.83;10.07;;;-3.20;99.90;;;;;;5093623;28;20024;-73
2022/01/15 06:22:28;;;;;;;20.38;9.68;;;-3.20;99.90;;;;;;5093272;28;20085;-73
2022/01/15 06:24:54;;;;;;;18.67;8.55;;;-3.20;99.90;;;;;;5093211;28;20372;-73
2022/01/15 06:27:19;;;;;;;17.27;8.65;;;-3.20;99.90;;;;;;5093316;28;20057;-73
2022/01/15 06:29:46;;;;;;;16.05;8.38;;;-3.20;99.90;;;;;;5075075;28;20024;-73
2022/01/15 06:32:12;;;;;;;21.98;10.00;;;-3.20;99.90;;;;;;5093396;28;20529;-73
2022/01/15 06:34:39;;;;;;;21.17;10.25;;;-3.10;99.90;;;;;;5074927;28;20020;-73
2022/01/15 06:37:05;;;;;;;25.15;10.57;;;-3.10;99.90;;;;;;5093478;28;20117;-73
2022/01/15 06:39:33;;;;;;;22.65;10.68;;;-3.10;99.90;;;;;;5093408;28;20032;-73
2022/01/15 06:41:59;;;;;;;23.58;11.07;;;-3.10;99.90;;;;;;5093299;28;20020;-73
2022/01/15 06:44:25;;;;;;;25.83;12.45;;;-3.20;99.90;;;;;;5093072;28;20028;-73
2022/01/15 06:46:51;;;;;;;25.08;11.52;;;-3.20;99.90;;;;;;5093089;28;20077;-73
2022/01/15 06:49:17;;;;;;;23.58;10.88;;;-3.20;99.90;;;;;;5096989;28;20024;-73
2022/01/15 06:51:42;;;;;;;38.65;13.02;;;-3.20;99.90;;;;;;5096755;28;20468;-73
2022/01/15 06:54:09;;;;;;;24.52;10.13;;;-3.20;99.90;;;;;;5078735;28;20024;-73
2022/01/15 06:56:35;;;;;;;33.50;12.73;;;-3.30;99.90;;;;;;5096709;28;20103;-73
2022/01/15 06:59:01;;;;;;;27.60;11.25;;;-3.30;99.90;;;;;;5078582;28;20066;-73
2022/01/15 07:01:26;;;;;;;24.63;11.48;;;-3.40;99.90;;;;;;5096384;28;20020;-73
2022/01/15 07:03:52;;;;;;;21.58;9.57;;;-3.40;99.90;;;;;;5078173;28;20028;-73
2022/01/15 07:06:18;;;;;;;23.45;9.27;;;-3.40;99.90;;;;;;5096757;28;20107;-72
2022/01/15 07:08:43;;;;;;;23.10;8.68;;;-3.40;99.90;;;;;;5096999;28;20044;-73
2022/01/15 07:11:09;;;;;;;19.02;8.43;;;-3.40;99.90;;;;;;5096373;28;20035;-73
2022/01/15 07:13:35;;;;;;;20.92;9.25;;;-3.40;99.90;;;;;;5078356;28;20020;-73
2022/01/15 07:16:01;;;;;;;21.88;9.30;;;-3.30;99.90;;;;;;5096421;28;20034;-73
2022/01/15 07:18:26;;;;;;;21.92;9.73;;;-3.30;99.90;;;;;;5078153;28;20046;-72
2022/01/15 07:20:53;;;;;;;17.38;8.63;;;-3.30;99.90;;;;;;5095833;28;20046;-73
2022/01/15 07:23:18;;;;;;;20.35;9.23;;;-3.30;99.90;;;;;;5095978;28;20023;-73
2022/01/15 07:25:45;;;;;;;20.08;9.98;;;-3.30;99.90;;;;;;5096111;28;20391;-72
2022/01/15 07:28:10;;;;;;;18.42;8.95;;;-3.40;99.90;;;;;;5077998;28;20040;-72
2022/01/15 07:30:36;;;;;;;19.60;9.30;;;-3.40;99.90;;;;;;5077932;28;20032;-72
2022/01/15 07:33:02;;;;;;;23.60;8.90;;;-3.40;99.90;;;;;;5096346;28;20020;-73
2022/01/15 07:35:28;;;;;;;20.65;9.05;;;-3.40;99.90;;;;;;5095967;28;20073;-72
2022/01/15 07:37:55;;;;;;;17.50;8.57;;;-3.40;99.90;;;;;;5096412;28;20012;-72
2022/01/15 07:40:21;;;;;;;19.60;8.98;;;-3.30;99.90;;;;;;5077765;28;20031;-73
2022/01/15 07:42:47;;;;;;;23.20;9.07;;;-3.30;99.90;;;;;;5095787;28;20388;-73
2022/01/15 07:45:15;;;;;;;18.40;8.27;;;-3.20;99.90;;;;;;5096026;28;20035;-72
2022/01/15 07:47:42;;;;;;;19.75;8.60;;;-3.20;99.90;;;;;;5096055;28;20031;-72
2022/01/15 07:50:17;;;;;;;20.02;8.65;;;-3.20;99.90;;;;;;5077476;28;20032;-72
2022/01/15 07:52:43;;;;;;;19.55;7.35;;;-3.20;99.90;;;;;;5077379;28;20489;-72
2022/01/15 07:55:09;;;;;;;18.30;8.13;;;-3.20;99.90;;;;;;5077470;28;20415;-72
2022/01/15 07:57:35;;;;;;;18.55;7.95;;;-3.10;99.90;;;;;;5077556;28;20027;-73
2022/01/15 08:00:01;;;;;;;15.50;7.25;;;-3.10;99.90;;;;;;5076638;28;20024;-72
2022/01/15 08:02:27;;;;;;;19.45;7.90;;;-3.10;99.90;;;;;;5095716;28;20077;-72
2022/01/15 08:04:52;;;;;;;19.77;8.73;;;-3.00;99.90;;;;;;5095378;28;20078;-73
2022/01/15 08:07:18;;;;;;;17.27;7.72;;;-3.00;99.90;;;;;;5095321;28;20024;-72
2022/01/15 08:09:44;;;;;;;17.65;8.20;;;-3.00;99.90;;;;;;5095389;28;20020;-72
2022/01/15 08:12:11;;;;;;;18.63;7.20;;;-3.00;99.90;;;;;;5077136;28;20024;-72
2022/01/15 08:14:37;;;;;;;21.20;9.07;;;-2.90;99.90;;;;;;5095418;28;20024;-72
2022/01/15 08:17:03;;;;;;;26.55;13.63;;;-2.90;99.90;;;;;;5077117;28;20020;-72
2022/01/15 08:19:29;;;;;;;22.50;10.93;;;-2.90;99.90;;;;;;5077017;28;20491;-72
2022/01/15 08:21:55;;;;;;;21.42;9.38;;;-2.90;99.90;;;;;;5095104;28;20024;-72
2022/01/15 08:24:20;;;;;;;22.77;10.45;;;-2.90;99.90;;;;;;5076817;28;20032;-72
2022/01/15 08:26:47;;;;;;;24.08;10.15;;;-2.80;99.90;;;;;;5095536;28;20047;-72
2022/01/15 08:29:12;;;;;;;22.08;10.27;;;-2.80;99.90;;;;;;5094981;28;20024;-73
2022/01/15 08:31:38;;;;;;;30.73;12.98;;;-2.80;99.90;;;;;;5094801;28;20028;-72
2022/01/15 08:34:04;;;;;;;29.63;12.82;;;-2.80;99.90;;;;;;5095346;28;20042;-72
2022/01/15 08:36:32;;;;;;;25.33;11.65;;;-2.80;99.90;;;;;;5094765;28;20081;-72
2022/01/15 08:38:57;;;;;;;23.33;10.98;;;-2.80;99.90;;;;;;5094766;28;20091;-72
2022/01/15 08:41:24;;;;;;;20.98;10.23;;;-2.70;99.90;;;;;;5094697;28;20058;-72
2022/01/15 08:43:50;;;;;;;24.95;10.18;;;-2.70;99.90;;;;;;5094631;28;20024;-72
2022/01/15 08:46:18;;;;;;;25.38;10.98;;;-2.70;99.90;;;;;;5094659;28;20020;-72
2022/01/15 08:48:44;;;;;;;28.23;12.73;;;-2.60;99.90;;;;;;5094554;28;20035;-72
2022/01/15 08:51:09;;;;;;;26.08;12.43;;;-2.60;99.90;;;;;;5094415;28;20047;-72
2022/01/15 08:53:35;;;;;;;34.45;13.93;;;-2.60;99.90;;;;;;5094933;28;20016;-72
2022/01/15 08:56:01;;;;;;;32.50;14.23;;;-2.60;99.90;;;;;;5094421;28;20021;-72
2022/01/15 08:58:27;;;;;;;30.58;12.65;;;-2.60;99.90;;;;;;5094463;28;20089;-72
2022/01/15 09:00:54;;;;;;;31.13;13.82;;;-2.60;99.90;;;;;;5094576;28;20093;-72
2022/01/15 09:03:22;;;;;;;31.83;14.38;;;-2.60;99.90;;;;;;5094447;28;20024;-72
2022/01/15 09:05:48;;;;;;;30.80;15.10;;;-2.60;99.90;;;;;;5094573;28;20051;-72
2022/01/15 09:08:13;;;;;;;26.75;12.90;;;-2.60;99.90;;;;;;5094195;28;20071;-72
2022/01/15 09:10:41;;;;;;;25.90;11.35;;;-2.60;99.90;;;;;;5094402;28;20077;-72
2022/01/15 09:13:10;;;;;;;26.40;12.75;;;-2.60;99.90;;;;;;5094244;28;20028;-72
2022/01/15 09:15:36;;;;;;;27.40;11.48;;;-2.60;99.90;;;;;;5094366;28;20476;-72
2022/01/15 09:18:02;;;;;;;24.73;10.65;;;-2.60;99.90;;;;;;5094295;28;20077;-72
2022/01/15 09:20:29;;;;;;;26.70;11.18;;;-2.60;99.90;;;;;;5094406;28;20083;-72
2022/01/15 09:22:55;;;;;;;29.15;11.60;;;-2.60;99.90;;;;;;5093872;28;20027;-72
2022/01/15 09:25:21;;;;;;;25.50;11.07;;;-2.60;99.90;;;;;;5094623;28;20020;-73
2022/01/15 09:30:31;;;;;;;30.70;12.88;;;-2.50;99.90;;;;;;5094231;28;20069;-72
2022/01/15 09:32:58;;;;;;;25.50;12.23;;;-2.50;99.90;;;;;;5093956;28;20035;-72
2022/01/15 09:35:27;;;;;;;30.85;12.43;;;-2.40;99.90;;;;;;5094141;28;20016;-72
2022/01/15 09:37:54;;;;;;;29.60;12.80;;;-2.30;99.90;;;;;;5093977;28;20048;-72
2022/01/15 09:40:22;;;;;;;26.48;11.73;;;-2.20;99.90;;;;;;5093769;28;20031;-71
2022/01/15 09:42:49;;;;;;;32.47;13.90;;;-2.10;99.90;;;;;;5093913;28;20376;-71
2022/01/15 09:45:16;;;;;;;29.73;12.70;;;-2.00;99.90;;;;;;5093665;28;20472;-72
2022/01/15 09:47:42;;;;;;;28.17;13.32;;;-2.00;99.90;;;;;;5093772;28;20028;-71
2022/01/15 09:50:12;;;;;;;41.38;17.83;;;-1.90;99.90;;;;;;5093669;28;20032;-71
2022/01/15 09:52:38;;;;;;;43.17;19.02;;;-1.90;99.90;;;;;;5075424;28;20028;-71
2022/01/15 09:55:06;;;;;;;40.28;16.48;;;-1.90;99.90;;;;;;5094607;28;20024;-72
2022/01/15 09:57:33;;;;;;;40.05;17.25;;;-1.90;99.90;;;;;;5093651;28;20106;-72
2022/01/15 10:00:02;;;;;;;36.97;16.20;;;-1.80;99.90;;;;;;5094197;28;20024;-72
2022/01/15 10:02:28;;;;;;;33.33;15.57;;;-1.80;99.90;;;;;;5075548;28;20024;-72
2022/01/15 10:04:54;;;;;;;35.90;15.57;;;-1.70;99.90;;;;;;5075354;28;20047;-72
2022/01/15 10:07:27;;;;;;;30.17;13.63;;;-1.70;99.90;;;;;;5093516;28;20063;-72
2022/01/15 10:09:54;;;;;;;31.58;12.90;;;-1.60;99.90;;;;;;5094098;28;20039;-72
2022/01/15 10:12:26;;;;;;;30.75;13.52;;;-1.50;99.90;;;;;;5093364;28;20042;-72
2022/01/15 10:14:54;;;;;;;30.52;12.85;;;-1.50;99.90;;;;;;5093327;28;20090;-72
2022/01/15 10:17:34;;;;;;;28.95;12.00;;;-1.40;99.90;;;;;;5093871;28;20016;-72
2022/01/15 10:20:03;;;;;;;26.33;11.90;;;-1.40;99.90;;;;;;5093394;28;20023;-72
2022/01/15 10:22:31;;;;;;;33.50;12.88;;;-1.40;99.90;;;;;;5094154;28;20029;-72
2022/01/15 10:25:01;;;;;;;26.55;10.25;;;-1.40;99.90;;;;;;5097274;28;20487;-72
2022/01/15 10:27:34;;;;;;;38.37;13.57;;;-1.40;99.90;;;;;;5097373;28;20467;-72
2022/01/15 10:30:15;;;;;;;40.55;14.70;;;-1.40;99.90;;;;;;5097578;28;20081;-72
2022/01/15 10:33:02;;;;;;;42.22;15.00;;;-1.40;99.90;;;;;;5097106;28;20483;-71
2022/01/15 10:35:37;;;;;;;34.97;12.93;;;-1.40;99.90;;;;;;5097531;28;20028;-72
2022/01/15 10:38:06;;;;;;;40.50;16.20;;;-1.40;99.90;;;;;;5097984;28;20099;-72
2022/01/15 10:40:42;;;;;;;31.13;13.80;;;-1.40;99.90;;;;;;5097135;28;20020;-72
2022/01/15 10:43:09;;;;;;;26.52;12.05;;;-1.30;99.90;;;;;;5096930;28;20028;-72
2022/01/15 10:45:56;;;;;;;29.55;12.30;;;-1.30;99.90;;;;;;5096943;28;20028;-72
2022/01/15 10:48:31;;;;;;;32.53;12.65;;;-1.30;99.90;;;;;;5097550;28;20024;-72
2022/01/15 10:51:08;;;;;;;26.05;12.43;;;-1.30;99.90;;;;;;5096903;28;20024;-72
2022/01/15 10:53:39;;;;;;;31.40;13.32;;;-1.20;99.90;;;;;;5096883;28;20023;-71
2022/01/15 10:56:07;;;;;;;29.02;13.23;;;-1.20;99.90;;;;;;5096670;28;20028;-72
2022/01/15 10:58:34;;;;;;;36.90;15.48;;;-1.20;99.90;;;;;;5096580;28;20113;-72
2022/01/15 11:00:59;;;;;;;29.90;13.68;;;-1.20;99.90;;;;;;5096600;28;20024;-72
2022/01/15 11:03:36;;;;;;;33.72;14.43;;;-1.20;99.90;;;;;;5078260;28;20036;-71
2022/01/15 11:06:02;;;;;;;41.70;18.45;;;-1.10;99.90;;;;;;5078444;28;20052;-72
2022/01/15 11:08:28;;;;;;;44.47;18.70;;;-1.10;99.90;;;;;;5096493;28;20042;-72
2022/01/15 11:11:05;;;;;;;46.97;18.77;;;-1.00;99.90;;;;;;5096994;28;20024;-72
2022/01/15 11:13:30;;;;;;;49.30;19.02;;;-1.00;99.90;;;;;;5096358;28;20081;-72
2022/01/15 11:16:00;;;;;;;44.97;18.98;;;-0.90;99.90;;;;;;5078358;28;20028;-72
2022/01/15 11:18:28;;;;;;;49.42;20.52;;;-0.90;99.90;;;;;;5078487;28;20406;-72
2022/01/15 11:20:56;;;;;;;46.65;19.42;;;-0.90;99.90;;;;;;5096290;28;20432;-72
2022/01/15 11:23:23;;;;;;;46.08;18.60;;;-0.80;99.90;;;;;;5096494;28;20020;-72
2022/01/15 11:25:51;;;;;;;43.60;18.17;;;-0.80;99.90;;;;;;5096181;28;20030;-72
2022/01/15 11:28:22;;;;;;;45.72;17.55;;;-0.70;99.90;;;;;;5096192;28;20028;-72
2022/01/15 11:30:52;;;;;;;43.80;18.92;;;-0.70;99.90;;;;;;5096456;28;20098;-72
2022/01/15 11:33:28;;;;;;;44.15;19.20;;;-0.70;99.90;;;;;;5077469;28;20024;-72
2022/01/15 11:35:54;;;;;;;51.53;22.23;;;-0.70;99.90;;;;;;5095436;28;20031;-72
2022/01/15 11:38:44;;;;;;;45.63;21.05;;;-0.60;99.90;;;;;;5077878;28;20024;-72
2022/01/15 11:41:37;;;;;;;34.85;17.80;;;-0.60;99.90;;;;;;5077921;28;20087;-72
2022/01/15 11:44:36;;;;;;;41.58;18.98;;;-0.50;99.90;;;;;;5093577;28;20181;-71
2022/01/15 11:47:18;;;;;;;39.30;18.15;;;-0.50;99.90;;;;;;5095827;28;20028;-72
2022/01/15 11:49:49;;;;;;;34.17;17.33;;;-0.50;99.90;;;;;;5077665;28;20024;-72
2022/01/15 11:52:14;;;;;;;;;;;-0.40;99.90;;;;;;5077736;28;20107;-72
2022/01/15 11:54:58;;;;;;;37.67;16.67;;;-0.30;99.90;;;;;;5095641;28;19938;-72
2022/01/15 11:57:28;;;;;;;32.22;16.13;;;-0.20;99.90;;;;;;5095970;28;20024;-72
2022/01/15 11:59:57;;;;;;;34.63;15.07;;;-0.20;99.90;;;;;;5077319;28;20479;-72
2022/01/15 12:02:27;;;;;;;31.13;15.05;;;-0.10;99.90;;;;;;5077529;28;20032;-72
2022/01/15 12:04:54;;;;;;;27.73;13.60;;;0.00;99.90;;;;;;5084097;23;20131;-76
2022/01/15 12:07:21;;;;;;;30.77;16.63;;;0.00;99.90;;;;;;5095481;28;20475;-77
2022/01/15 12:09:52;;;;;;;29.60;14.38;;;0.10;99.90;;;;;;5095515;28;20055;-77
2022/01/15 12:12:40;;;;;;;31.10;13.90;;;0.20;99.90;;;;;;5095715;28;20043;-77
2022/01/15 12:15:10;;;;;;;26.35;14.68;;;0.20;99.90;;;;;;5096122;28;20104;-77
2022/01/15 12:17:36;;;;;;;39.13;18.98;;;0.30;99.90;;;;;;5095210;28;20016;-77
2022/01/15 12:20:17;;;;;;;34.72;16.60;;;0.40;99.90;;;;;;5095395;28;20020;-77
2022/01/15 12:22:51;;;;;;;27.85;13.68;;;0.40;99.90;;;;;;5095833;28;20028;-77
2022/01/15 12:25:16;;;;;;;37.92;17.65;;;0.50;99.90;;;;;;5077414;28;20391;-77
2022/01/15 12:27:47;;;;;;;38.40;19.63;;;0.60;99.90;;;;;;5095578;28;20028;-76
2022/01/15 12:30:16;;;;;;;35.67;17.13;;;0.60;99.90;;;;;;5095637;28;20032;-76
2022/01/15 12:32:45;;;;;;;38.65;19.50;;;0.60;99.90;;;;;;5095584;28;20036;-76
2022/01/15 12:35:22;;;;;;;38.28;19.23;;;0.70;99.90;;;;;;5095071;28;20024;-77
2022/01/15 12:37:59;;;;;;;36.17;18.98;;;0.80;99.90;;;;;;5076748;28;20094;-76
2022/01/15 12:40:39;;;;;;;39.35;19.27;;;0.90;99.90;;;;;;5095043;28;20379;-76
2022/01/15 12:43:29;;;;;;;40.08;20.33;;;1.00;99.90;;;;;;5094904;28;20016;-76
2022/01/15 12:45:59;;;;;;;38.17;19.48;;;1.00;99.90;;;;;;5068489;28;20028;-76
2022/01/15 12:48:31;;;;;;;42.38;19.13;;;1.00;99.90;;;;;;5076502;28;20024;-76
2022/01/15 12:50:59;;;;;;;41.78;20.98;;;1.10;99.90;;;;;;5076728;28;20028;-76
2022/01/15 12:53:28;;;;;;;38.35;20.27;;;1.20;99.90;;;;;;5094892;28;20035;-76
2022/01/15 12:55:54;;;;;;;38.13;20.10;;;1.20;99.90;;;;;;5076737;28;20081;-77
2022/01/15 12:58:22;;;;;;;35.45;17.75;;;1.20;99.90;;;;;;5076272;28;20028;-76
2022/01/15 13:00:50;;;;;;;41.30;19.08;;;1.30;99.90;;;;;;5094921;28;20030;-76
2022/01/15 13:03:22;;;;;;;33.50;17.25;;;1.30;99.90;;;;;;5094838;28;20115;-76
2022/01/15 13:05:52;;;;;;;32.90;16.58;;;1.30;99.90;;;;;;5094313;28;20475;-75
2022/01/15 13:08:22;;;;;;;32.92;16.50;;;1.40;99.90;;;;;;5094482;28;20515;-76